This is the latest recevied weather packets stored in our database for station/object KG7FOQ-13. If no packets are shown the sender has not sent any weather packets the latest 10 day(s).
| Time | Temp. | Humidity | Pressure | Rain* | Wind** | Luminosity | Snow |
|---|---|---|---|---|---|---|---|
| 1777833121 | 20.56° C | 29% | 1013.6 hPa | 0 mm | - | - | - |
| 1777832821 | 21.11° C | 27% | 1013.6 hPa | 0 mm | - | - | - |
| 1777832521 | 20.56° C | 29% | 1013.7 hPa | 0 mm | - | - | - |
| 1777832220 | 20.56° C | 28% | 1013.8 hPa | 0 mm | - | - | - |
| 1777831919 | 20° C | 27% | 1013.8 hPa | 0 mm | - | - | - |
| 1777831619 | 20° C | 30% | 1014 hPa | 0 mm | - | - | - |
| 1777831318 | 20° C | 28% | 1014 hPa | 0 mm | - | - | - |
| 1777831018 | 19.44° C | 28% | 1014.1 hPa | 0 mm | - | - | - |
| 1777830718 | 18.89° C | 29% | 1014.1 hPa | 0 mm | - | - | - |
| 1777830417 | 18.89° C | 30% | 1014.2 hPa | 0 mm | - | - | - |
| 1777830116 | 18.89° C | 31% | 1014.3 hPa | 0 mm | - | - | - |
| 1777829816 | 18.89° C | 33% | 1014.3 hPa | 0 mm | - | - | - |
| 1777829515 | 18.33° C | 34% | 1014.4 hPa | 0 mm | - | - | - |
| 1777829215 | 18.33° C | 34% | 1014.4 hPa | 0 mm | - | - | - |
| 1777828914 | 18.89° C | 34% | 1014.5 hPa | 0 mm | - | - | - |
| 1777828614 | 18.33° C | 35% | 1014.5 hPa | 0 mm | - | - | - |
| 1777828313 | 17.78° C | 35% | 1014.5 hPa | 0 mm | - | - | - |
| 1777828013 | 18.33° C | 34% | 1014.7 hPa | 0 mm | - | - | - |
| 1777827712 | 17.78° C | 35% | 1014.7 hPa | 0 mm | - | - | - |
| 1777827412 | 17.78° C | 35% | 1014.8 hPa | 0 mm | - | - | - |
| 1777827263 | 17.78° C | 36% | 1014.8 hPa | 0 mm | - | - | - |
| 1777827111 | 17.78° C | 36% | 1014.8 hPa | 0 mm | - | - | - |
| 1777826811 | 17.22° C | 37% | 1014.8 hPa | 0 mm | - | - | - |
| 1777826510 | 17.78° C | 33% | 1014.8 hPa | 0 mm | - | - | - |
| 1777826210 | 17.22° C | 34% | 1014.8 hPa | 0 mm | - | - | - |
* Rain latest hour (hover to see other rain measurements)
** Current wind speed in m/s (hover to see current wind gust speed)